Time;durP1;ratioP1;P1;durP2;ratioP2;P2;SDS_P1;SDS_P2;PMS_P1;PMS_P2;Temp;Humidity;BMP_temperature;BMP_pressure;BME280_temperature;BME280_humidity;BME280_pressure;Samples;Min_cycle;Max_cycle;Signal;HPM_P1;HPM_P2
2023/10/17 04:02:36;;;;;;;3.45;2.85;;;4.00;99.90;;;;;;4970170;28;20220;-71
2023/10/17 04:05:10;;;;;;;4.57;4.18;;;4.00;99.90;;;;;;4972251;28;20220;-72
2023/10/17 04:07:37;;;;;;;2.95;2.70;;;3.90;99.90;;;;;;4972350;28;20213;-71
2023/10/17 04:10:19;;;;;;;2.67;2.53;;;3.90;99.90;;;;;;4972150;28;20239;-71
2023/10/17 04:12:53;;;;;;;4.15;3.90;;;3.90;99.90;;;;;;4952997;29;20220;-71
2023/10/17 04:15:24;;;;;;;5.07;4.78;;;3.90;99.90;;;;;;4953266;29;20295;-73
2023/10/17 04:17:53;;;;;;;3.92;3.72;;;3.90;99.90;;;;;;4953038;29;20600;-73
2023/10/17 04:20:22;;;;;;;3.30;3.10;;;3.90;99.90;;;;;;4952687;29;20209;-73
2023/10/17 04:22:49;;;;;;;3.75;3.60;;;3.90;99.90;;;;;;4953155;28;20659;-73
2023/10/17 04:25:30;;;;;;;3.53;3.17;;;3.80;99.90;;;;;;4952590;29;20213;-73
2023/10/17 04:27:59;;;;;;;4.03;3.72;;;3.80;99.90;;;;;;4952927;28;20239;-72
2023/10/17 04:30:29;;;;;;;5.53;3.95;;;3.80;99.90;;;;;;4952682;29;20233;-73
2023/10/17 04:33:08;;;;;;;3.40;3.20;;;3.80;99.90;;;;;;4952544;29;20908;-73
2023/10/17 04:35:35;;;;;;;3.90;3.50;;;3.80;99.90;;;;;;4952266;29;20267;-73
2023/10/17 04:38:16;;;;;;;4.35;4.05;;;3.80;99.90;;;;;;4952589;29;20220;-73
2023/10/17 04:40:50;;;;;;;3.28;3.03;;;3.80;99.90;;;;;;4952448;29;20277;-72
2023/10/17 04:46:01;;;;;;;3.45;3.15;;;3.70;99.90;;;;;;4952354;29;20216;-73
2023/10/17 04:48:35;;;;;;;4.53;4.03;;;3.70;99.90;;;;;;4952726;29;20284;-73
2023/10/17 04:51:19;;;;;;;4.15;3.88;;;3.70;99.90;;;;;;4952060;28;20768;-73
2023/10/17 04:53:48;;;;;;;3.00;2.83;;;3.70;99.90;;;;;;4952274;29;20213;-73
2023/10/17 04:56:16;;;;;;;3.88;3.60;;;3.70;99.90;;;;;;4951703;28;20712;-73
2023/10/17 04:58:49;;;;;;;4.05;3.90;;;3.70;99.90;;;;;;4952184;29;20669;-73
2023/10/17 05:04:04;;;;;;;8.00;4.07;;;3.70;99.90;;;;;;4952070;28;20231;-73
2023/10/17 06:16:49;;;;;;;3.08;2.90;;;3.70;99.90;;;;;;4952523;29;20212;-73
2023/10/17 06:18:26;;;;;;;3.97;3.67;;;3.40;99.90;;;;;;4955541;29;20208;-73
2023/10/17 06:21:08;;;;;;;3.03;2.92;;;3.40;99.90;;;;;;4955460;29;20229;-73
2023/10/17 06:31:56;;;;;;;5.60;3.70;;;3.50;99.90;;;;;;4944602;28;20796;-73
2023/10/17 06:34:24;;;;;;;3.42;3.28;;;3.50;99.90;;;;;;4955500;29;20219;-72
2023/10/17 06:36:55;;;;;;;5.72;3.85;;;3.50;99.90;;;;;;4955280;29;20209;-73
2023/10/17 06:39:24;;;;;;;4.28;3.88;;;3.60;99.90;;;;;;4955291;29;20208;-72
2023/10/17 06:41:55;;;;;;;4.35;3.95;;;3.60;99.90;;;;;;4955076;28;20263;-73
2023/10/17 06:44:22;;;;;;;10.80;4.25;;;3.60;99.90;;;;;;4955142;29;20677;-72
2023/10/17 06:46:55;;;;;;;3.88;3.67;;;3.70;99.90;;;;;;4955344;29;20713;-72
2023/10/17 06:49:46;;;;;;;18.60;14.70;;;3.90;99.90;;;;;;4955421;29;20554;-73
2023/10/17 06:52:19;;;;;;;27.35;18.45;;;4.00;99.90;;;;;;4954805;28;20233;-72
2023/10/17 06:54:50;;;;;;;11.90;8.88;;;4.10;99.90;;;;;;4954948;28;20208;-72
2023/10/17 06:57:19;;;;;;;4.90;4.35;;;4.10;99.90;;;;;;4954842;29;20305;-73
2023/10/17 06:59:47;;;;;;;8.65;7.57;;;4.10;99.90;;;;;;4954969;29;20217;-73
2023/10/17 07:02:18;;;;;;;19.75;13.25;;;4.20;99.90;;;;;;4954848;28;20260;-73
2023/10/17 07:04:49;;;;;;;38.05;22.08;;;4.20;99.90;;;;;;4954890;28;20642;-73
2023/10/17 07:07:18;;;;;;;73.47;41.00;;;4.30;99.90;;;;;;4954546;28;20253;-73
2023/10/17 07:09:52;;;;;;;53.38;31.50;;;4.30;99.90;;;;;;4954703;28;20217;-73
2023/10/17 07:12:20;;;;;;;42.65;24.85;;;4.40;99.90;;;;;;4954681;28;20606;-73
2023/10/17 07:14:51;;;;;;;23.15;15.20;;;4.40;99.90;;;;;;4954664;28;20223;-72
2023/10/17 07:17:25;;;;;;;27.20;15.95;;;4.50;99.90;;;;;;4954365;28;20272;-73
2023/10/17 07:19:58;;;;;;;10.52;7.45;;;4.50;99.90;;;;;;4954436;28;20221;-73
2023/10/17 07:22:26;;;;;;;45.08;31.00;;;4.60;99.90;;;;;;4954456;28;20311;-72
2023/10/17 07:24:53;;;;;;;27.00;19.92;;;4.60;99.90;;;;;;4954293;28;20312;-73
2023/10/17 07:27:26;;;;;;;23.48;15.30;;;4.70;99.90;;;;;;4954104;28;20221;-73
2023/10/17 07:29:59;;;;;;;12.38;9.75;;;4.80;99.90;;;;;;4954085;29;20308;-72
2023/10/17 07:32:32;;;;;;;6.93;6.30;;;4.80;99.90;;;;;;4954129;29;20237;-73
2023/10/17 07:35:01;;;;;;;23.88;16.65;;;4.90;99.90;;;;;;4954076;28;20244;-73
2023/10/17 07:37:33;;;;;;;19.10;15.82;;;4.90;99.90;;;;;;4954133;28;20216;-73
2023/10/17 07:42:56;;;;;;;5.00;4.60;;;5.00;99.90;;;;;;5088210;27;20542;-70
2023/10/17 07:45:23;;;;;;;4.95;4.35;;;5.00;99.90;;;;;;5087986;28;20216;-70
2023/10/17 07:47:54;;;;;;;4.50;4.15;;;5.10;99.90;;;;;;5088232;28;20264;-70
2023/10/17 07:50:25;;;;;;;5.28;4.20;;;5.20;99.90;;;;;;5087941;28;20296;-71
2023/10/17 07:52:54;;;;;;;6.68;5.63;;;5.20;99.90;;;;;;5088402;28;20201;-70
2023/10/17 07:55:35;;;;;;;9.90;9.00;;;5.30;99.90;;;;;;5087879;28;20208;-71
2023/10/17 07:58:08;;;;;;;5.00;4.53;;;5.30;99.90;;;;;;5087922;28;20642;-70
2023/10/17 08:00:36;;;;;;;4.90;4.53;;;5.50;99.90;;;;;;5087920;28;20282;-70
2023/10/17 08:03:08;;;;;;;5.68;5.20;;;5.60;99.90;;;;;;5088042;28;20231;-73
2023/10/17 08:05:37;;;;;;;4.55;4.15;;;5.70;99.90;;;;;;5087759;28;20213;-73
2023/10/17 08:08:08;;;;;;;5.68;5.18;;;5.80;99.90;;;;;;5087774;28;20283;-74
2023/10/17 08:10:35;;;;;;;7.45;6.18;;;5.80;99.90;;;;;;5087642;28;20319;-72
2023/10/17 08:13:03;;;;;;;11.68;5.10;;;5.90;99.90;;;;;;5087617;28;20369;-71
2023/10/17 08:15:38;;;;;;;6.45;4.63;;;6.00;99.90;;;;;;5087843;28;20216;-71
2023/10/17 08:18:13;;;;;;;5.75;5.20;;;6.10;99.90;;;;;;5078139;28;20308;-72
2023/10/17 08:20:54;;;;;;;5.13;4.72;;;6.20;99.90;;;;;;5081695;28;20231;-71
2023/10/17 08:23:21;;;;;;;3.95;3.75;;;6.30;99.90;;;;;;5087701;28;20749;-72
2023/10/17 08:25:53;;;;;;;4.38;4.13;;;6.30;99.90;;;;;;5087437;28;20254;-73
2023/10/17 08:28:37;;;;;;;11.00;4.30;;;6.30;99.90;;;;;;5087348;28;20212;-71
2023/10/17 08:31:22;;;;;;;5.88;3.45;;;6.40;99.90;;;;;;5087986;28;20224;-73
2023/10/17 08:33:56;;;;;;;4.07;3.63;;;6.50;99.90;;;;;;5087479;28;20216;-72
2023/10/17 08:36:28;;;;;;;4.10;3.70;;;6.50;99.90;;;;;;5087225;28;20254;-73
2023/10/17 08:38:54;;;;;;;4.35;3.97;;;6.60;99.90;;;;;;5087383;28;20212;-73
2023/10/17 08:41:23;;;;;;;4.55;4.20;;;6.70;99.90;;;;;;5087164;28;20649;-72
2023/10/17 08:43:53;;;;;;;2.92;2.85;;;6.80;99.90;;;;;;5087223;28;20670;-73
2023/10/17 08:46:20;;;;;;;3.47;3.25;;;7.00;99.90;;;;;;5087040;28;20240;-73
2023/10/17 08:48:47;;;;;;;3.03;2.85;;;7.00;99.90;;;;;;5087282;28;20271;-73
2023/10/17 08:51:15;;;;;;;4.13;3.22;;;7.20;99.90;;;;;;5086741;28;20224;-73
2023/10/17 08:53:43;;;;;;;3.08;2.83;;;7.30;99.90;;;;;;5076958;28;20216;-73
2023/10/17 08:56:14;;;;;;;2.67;2.17;;;7.40;99.90;;;;;;5073349;28;20270;-73
2023/10/17 08:58:43;;;;;;;1.90;1.80;;;7.50;99.90;;;;;;5073662;28;20458;-73
2023/10/17 09:01:11;;;;;;;1.77;1.67;;;7.60;99.90;;;;;;5073270;28;20767;-73
2023/10/17 09:03:41;;;;;;;1.17;1.17;;;7.70;99.90;;;;;;5073424;28;20588;-73
2023/10/17 09:06:28;;;;;;;1.52;1.48;;;7.80;99.90;;;;;;5073140;28;20601;-73
2023/10/17 09:09:17;;;;;;;2.30;2.20;;;7.80;99.90;;;;;;5073496;28;20586;-72
2023/10/17 09:12:19;;;;;;;2.63;1.73;;;7.90;99.90;;;;;;5073361;28;20233;-72
2023/10/17 09:14:48;;;;;;;1.83;1.55;;;8.00;99.90;;;;;;5073254;28;20229;-72
2023/10/17 09:17:28;;;;;;;1.33;1.23;;;8.10;99.90;;;;;;5072894;28;20264;-72
2023/10/17 09:20:01;;;;;;;2.03;1.92;;;8.20;99.90;;;;;;5074906;28;20208;-73
2023/10/17 09:22:38;;;;;;;1.35;1.35;;;8.30;99.90;;;;;;5075904;28;20233;-73
2023/10/17 09:25:19;;;;;;;1.40;1.40;;;8.40;99.90;;;;;;5075749;28;20316;-73
2023/10/17 09:27:50;;;;;;;2.08;1.75;;;8.40;99.90;;;;;;5075409;28;20219;-72
2023/10/17 09:30:18;;;;;;;2.55;1.85;;;8.50;99.90;;;;;;5073730;28;20263;-73
2023/10/17 09:32:48;;;;;;;4.93;1.80;;;8.60;99.90;;;;;;5073424;28;20247;-73
2023/10/17 09:35:18;;;;;;;1.25;1.20;;;8.80;99.90;;;;;;5053898;28;20205;-73
2023/10/17 09:37:50;;;;;;;2.13;1.92;;;8.80;99.90;;;;;;5059640;28;20266;-73
2023/10/17 09:40:25;;;;;;;1.95;1.30;;;8.90;99.90;;;;;;5072927;28;20589;-73
2023/10/17 09:42:53;;;;;;;1.65;1.42;;;8.90;99.90;;;;;;5072688;28;20239;-72
2023/10/17 09:45:20;;;;;;;1.10;1.10;;;9.10;99.90;;;;;;5072355;28;20243;-73
2023/10/17 09:47:53;;;;;;;2.70;1.42;;;9.10;99.90;;;;;;5072675;28;20262;-73
2023/10/17 09:50:21;;;;;;;2.20;1.42;;;9.30;99.90;;;;;;5072686;28;20560;-72
2023/10/17 09:52:49;;;;;;;1.95;0.80;;;9.30;99.90;;;;;;5072534;28;20209;-73
2023/10/17 09:55:18;;;;;;;4.25;1.20;;;9.30;99.90;;;;;;5072224;28;20567;-73
2023/10/17 09:57:51;;;;;;;1.10;1.05;;;9.50;99.90;;;;;;5072436;28;20209;-72
2023/10/17 10:00:35;;;;;;;1.48;1.30;;;9.60;99.90;;;;;;5072234;28;20685;-73
2023/10/17 10:03:05;;;;;;;1.65;0.73;;;9.60;99.90;;;;;;5072480;28;20331;-73
2023/10/17 10:05:32;;;;;;;1.30;1.20;;;9.60;99.90;;;;;;5071084;28;20691;-73
2023/10/17 10:08:02;;;;;;;0.70;0.70;;;9.60;99.90;;;;;;5072547;28;20209;-73
2023/10/17 10:10:56;;;;;;;1.73;1.00;;;9.80;99.90;;;;;;5074665;28;20343;-73
2023/10/17 10:13:24;;;;;;;0.77;0.77;;;10.00;99.90;;;;;;5026817;28;20292;-73
2023/10/17 10:15:58;;;;;;;1.20;0.80;;;10.00;99.90;;;;;;5072107;28;20243;-72
2023/10/17 10:18:57;;;;;;;1.75;0.90;;;10.10;99.90;;;;;;5078806;28;20236;-71
2023/10/17 10:21:55;;;;;;;3.47;1.00;;;10.10;99.90;;;;;;5075627;28;20229;-71
2023/10/17 10:24:27;;;;;;;1.58;1.23;;;10.20;99.90;;;;;;5070621;28;20209;-71
2023/10/17 10:27:20;;;;;;;2.25;1.13;;;10.40;99.90;;;;;;5076071;28;20220;-70
2023/10/17 10:29:49;;;;;;;0.90;0.68;;;10.60;99.90;;;;;;5072052;28;20212;-71
2023/10/17 10:32:31;;;;;;;1.00;0.90;;;10.70;99.90;;;;;;5071651;28;20739;-69
2023/10/17 10:34:59;;;;;;;2.17;1.25;;;10.80;99.90;;;;;;5071649;28;20209;-71
2023/10/17 10:37:26;;;;;;;1.20;1.15;;;10.70;99.90;;;;;;5071461;28;20205;-71
2023/10/17 10:40:11;;;;;;;1.17;1.08;;;10.70;99.90;;;;;;5071910;28;20209;-71
2023/10/17 10:42:45;;;;;;;1.85;1.05;;;10.70;99.90;;;;;;5071544;28;20666;-71
2023/10/17 10:45:31;;;;;;;5.22;1.77;;;10.70;99.90;;;;;;5071268;28;20205;-71
2023/10/17 10:47:58;;;;;;;1.10;1.10;;;10.70;99.90;;;;;;5071049;28;20265;-73
2023/10/17 10:50:31;;;;;;;0.70;0.70;;;10.70;99.90;;;;;;5068028;28;20216;-72
2023/10/17 10:53:00;;;;;;;1.10;0.73;;;10.70;99.90;;;;;;5068322;28;20202;-72
2023/10/17 10:55:27;;;;;;;0.77;0.77;;;10.70;99.90;;;;;;5071277;28;20256;-71
2023/10/17 10:57:54;;;;;;;3.40;0.70;;;10.80;99.90;;;;;;5071608;28;20220;-71
2023/10/17 11:00:21;;;;;;;0.80;0.80;;;10.80;99.90;;;;;;5071101;28;20206;-72
2023/10/17 11:02:48;;;;;;;1.95;0.50;;;10.90;99.90;;;;;;5071418;28;20240;-70
2023/10/17 11:05:15;;;;;;;0.68;0.68;;;10.90;99.90;;;;;;5071180;28;20304;-72
2023/10/17 11:07:44;;;;;;;0.67;0.67;;;11.00;99.90;;;;;;5071217;28;20221;-72
2023/10/17 11:10:13;;;;;;;1.50;0.70;;;11.00;99.90;;;;;;5071103;28;20461;-72
2023/10/17 11:12:40;;;;;;;1.00;1.00;;;11.00;99.90;;;;;;5065640;28;20518;-72
2023/10/17 11:15:11;;;;;;;0.60;0.60;;;11.10;99.90;;;;;;5067331;28;20468;-72
2023/10/17 11:17:39;;;;;;;0.50;0.50;;;11.00;99.90;;;;;;5056363;28;20467;-72
2023/10/17 11:20:14;;;;;;;3.13;0.87;;;11.10;99.90;;;;;;5070062;28;20472;-72
2023/10/17 11:22:43;;;;;;;1.33;1.03;;;11.10;99.90;;;;;;5056710;28;20494;-72
2023/10/17 11:25:15;;;;;;;0.53;0.53;;;11.10;99.90;;;;;;5070132;28;20947;-72
2023/10/17 11:27:53;;;;;;;0.70;0.70;;;11.10;99.90;;;;;;5070213;28;20463;-72
2023/10/17 11:30:20;;;;;;;4.07;0.70;;;11.10;99.90;;;;;;5070134;28;20273;-72
2023/10/17 11:32:49;;;;;;;0.87;0.87;;;11.10;99.90;;;;;;5070336;28;20210;-72
2023/10/17 11:35:29;;;;;;;0.93;0.55;;;11.10;99.90;;;;;;5069971;28;20468;-72
2023/10/17 11:37:58;;;;;;;0.80;0.80;;;11.10;99.90;;;;;;5070134;28;20332;-71
2023/10/17 11:40:39;;;;;;;0.60;0.60;;;11.10;99.90;;;;;;5070280;28;20217;-71
2023/10/17 11:43:20;;;;;;;1.02;0.70;;;11.10;99.90;;;;;;5070177;28;20311;-71
2023/10/17 11:45:48;;;;;;;0.90;0.90;;;11.10;99.90;;;;;;5070456;28;20623;-71
2023/10/17 11:48:27;;;;;;;1.50;0.70;;;11.10;99.90;;;;;;5069894;28;20262;-71
2023/10/17 11:51:15;;;;;;;0.55;0.55;;;11.20;99.90;;;;;;5070234;28;20244;-70
2023/10/17 11:54:07;;;;;;;6.32;1.17;;;11.20;99.90;;;;;;5069973;28;20565;-71
2023/10/17 11:56:34;;;;;;;1.25;0.40;;;11.20;99.90;;;;;;5064882;28;20277;-71
2023/10/17 11:59:02;;;;;;;0.75;0.75;;;11.30;99.90;;;;;;5058793;28;20214;-71
2023/10/17 12:01:30;;;;;;;0.70;0.70;;;11.30;99.90;;;;;;5070019;28;20240;-71
2023/10/17 12:03:58;;;;;;;2.58;0.73;;;11.40;99.90;;;;;;5069822;28;20235;-70
2023/10/17 12:06:27;;;;;;;1.13;0.70;;;11.40;99.90;;;;;;5069672;28;20213;-70
2023/10/17 12:08:54;;;;;;;3.33;0.70;;;11.40;99.90;;;;;;5069764;28;20582;-70
2023/10/17 12:11:24;;;;;;;0.40;0.40;;;11.30;99.90;;;;;;5069640;28;20229;-70
2023/10/17 12:13:51;;;;;;;0.50;0.50;;;11.30;99.90;;;;;;5070145;28;20212;-70
2023/10/17 12:16:23;;;;;;;0.52;0.50;;;11.30;99.90;;;;;;5069905;28;21172;-70
2023/10/17 12:18:51;;;;;;;5.18;0.70;;;11.30;99.90;;;;;;5070081;28;20217;-70
2023/10/17 12:21:17;;;;;;;5.47;1.00;;;11.30;99.90;;;;;;5069737;28;20233;-70
2023/10/17 12:23:45;;;;;;;3.50;0.95;;;11.30;99.90;;;;;;5069369;28;20240;-72
2023/10/17 12:26:14;;;;;;;0.40;0.40;;;11.30;99.90;;;;;;5069492;28;20211;-69
2023/10/17 12:28:43;;;;;;;1.50;0.65;;;11.30;99.90;;;;;;5071838;28;20210;-71
2023/10/17 12:31:10;;;;;;;0.70;0.50;;;11.40;99.90;;;;;;5073880;28;20242;-71
2023/10/17 12:33:37;;;;;;;1.40;0.83;;;11.40;99.90;;;;;;5074140;28;20209;-70
2023/10/17 12:36:06;;;;;;;1.40;0.50;;;11.50;99.90;;;;;;5073425;28;20467;-70
2023/10/17 12:38:35;;;;;;;2.58;1.00;;;11.50;99.90;;;;;;5073621;28;20221;-70
2023/10/17 12:41:06;;;;;;;1.33;0.57;;;11.50;99.90;;;;;;5065512;28;20472;-70
2023/10/17 12:43:33;;;;;;;1.10;0.53;;;11.50;99.90;;;;;;5073856;28;21027;-70
2023/10/17 12:46:02;;;;;;;0.55;0.40;;;11.60;99.90;;;;;;5074378;28;20461;-70
2023/10/17 12:48:29;;;;;;;1.30;0.50;;;11.60;99.90;;;;;;5074189;28;20209;-69
2023/10/17 12:50:56;;;;;;;2.10;1.88;;;11.60;99.90;;;;;;5073620;28;20279;-70
2023/10/17 12:53:22;;;;;;;0.98;0.50;;;11.50;99.90;;;;;;5073828;28;20470;-70
2023/10/17 12:55:49;;;;;;;1.27;0.70;;;11.50;99.90;;;;;;5073284;28;20652;-70
2023/10/17 12:58:22;;;;;;;1.75;0.70;;;11.50;99.90;;;;;;5070726;28;20209;-70
2023/10/17 13:00:49;;;;;;;1.83;0.75;;;11.50;99.90;;;;;;5053119;28;20783;-70
2023/10/17 13:03:19;;;;;;;3.05;1.40;;;11.50;99.90;;;;;;5063520;28;20316;-69
2023/10/17 13:05:46;;;;;;;1.73;0.80;;;11.60;99.90;;;;;;5073121;28;20217;-69
2023/10/17 13:08:14;;;;;;;1.48;0.57;;;11.50;99.90;;;;;;5073370;28;20457;-69
2023/10/17 13:10:41;;;;;;;1.13;0.60;;;11.50;99.90;;;;;;5066385;28;20268;-69
2023/10/17 13:13:10;;;;;;;0.77;0.63;;;11.50;99.90;;;;;;5070614;28;20206;-69
2023/10/17 13:15:37;;;;;;;0.70;0.70;;;11.60;99.90;;;;;;5074888;28;20538;-69
2023/10/17 13:18:07;;;;;;;0.87;0.87;;;11.60;99.90;;;;;;5072485;28;20467;-69
2023/10/17 13:20:35;;;;;;;0.47;0.47;;;11.60;99.90;;;;;;5072649;28;20540;-69
2023/10/17 13:23:04;;;;;;;1.10;0.40;;;11.70;99.90;;;;;;5072580;28;20229;-69
2023/10/17 13:25:34;;;;;;;1.30;1.00;;;11.70;99.90;;;;;;5068422;28;20296;-70
2023/10/17 13:28:01;;;;;;;0.90;0.80;;;11.70;99.90;;;;;;5052735;28;20459;-72
2023/10/17 13:30:28;;;;;;;0.77;0.70;;;11.70;99.90;;;;;;5053963;28;20457;-71
2023/10/17 13:32:55;;;;;;;0.65;0.65;;;11.80;99.90;;;;;;5053913;28;20915;-71
2023/10/17 13:35:22;;;;;;;1.13;0.70;;;11.80;99.90;;;;;;5055033;28;20220;-72
2023/10/17 13:37:54;;;;;;;1.13;0.80;;;11.80;99.90;;;;;;5054545;28;20554;-72
2023/10/17 13:40:22;;;;;;;0.40;0.40;;;11.90;99.90;;;;;;5053046;28;20460;-72
2023/10/17 13:42:50;;;;;;;0.70;0.70;;;11.90;99.90;;;;;;5052842;28;20492;-72
2023/10/17 13:45:17;;;;;;;0.53;0.53;;;11.90;99.90;;;;;;5052761;28;20516;-71
2023/10/17 13:47:44;;;;;;;1.50;0.80;;;11.90;99.90;;;;;;5053234;28;20468;-70
2023/10/17 13:50:13;;;;;;;2.83;0.90;;;11.90;99.90;;;;;;5052101;28;20465;-71
2023/10/17 13:52:41;;;;;;;2.43;0.67;;;11.90;99.90;;;;;;5052436;28;20467;-71
2023/10/17 13:55:14;;;;;;;0.57;0.50;;;11.90;99.90;;;;;;5051951;28;20458;-71
2023/10/17 13:57:43;;;;;;;2.73;0.30;;;11.90;99.90;;;;;;5052132;28;20456;-72
2023/10/17 14:00:18;;;;;;;1.70;0.77;;;11.90;99.90;;;;;;5052437;28;20530;-71
2023/10/17 14:02:47;;;;;;;1.80;1.27;;;11.80;99.90;;;;;;5058274;28;20636;-71
2023/10/17 14:05:14;;;;;;;0.67;0.67;;;11.80;99.90;;;;;;5072191;28;20460;-71
2023/10/17 14:07:41;;;;;;;0.60;0.50;;;11.80;99.90;;;;;;5072060;28;20461;-70
2023/10/17 14:10:11;;;;;;;12.87;1.03;;;11.80;99.90;;;;;;5062480;28;20465;-70
2023/10/17 14:12:40;;;;;;;0.60;0.60;;;11.80;99.90;;;;;;5051918;28;20468;-70
2023/10/17 14:15:08;;;;;;;0.43;0.40;;;11.80;99.90;;;;;;5059739;28;20466;-70
2023/10/17 14:17:34;;;;;;;1.93;0.70;;;11.70;99.90;;;;;;5052019;28;20863;-70
2023/10/17 14:20:06;;;;;;;0.47;0.47;;;11.70;99.90;;;;;;5051599;28;20903;-71
2023/10/17 14:22:44;;;;;;;2.00;1.00;;;11.70;99.90;;;;;;5051527;28;20481;-71
2023/10/17 14:25:13;;;;;;;1.60;0.50;;;11.60;99.90;;;;;;5051444;28;20476;-71
2023/10/17 14:27:38;;;;;;;0.40;0.40;;;11.60;99.90;;;;;;5051368;28;20476;-70
2023/10/17 14:30:10;;;;;;;1.33;0.83;;;11.60;99.90;;;;;;5060400;28;20948;-71
2023/10/17 14:32:39;;;;;;;1.03;0.60;;;11.50;99.90;;;;;;5057703;28;20466;-71
2023/10/17 14:35:06;;;;;;;1.20;0.60;;;11.50;99.90;;;;;;5058992;28;20467;-71
2023/10/17 14:37:34;;;;;;;1.35;1.25;;;11.50;99.90;;;;;;5059398;28;20242;-71
2023/10/17 14:40:01;;;;;;;1.27;1.13;;;11.50;99.90;;;;;;5059519;28;20587;-70
2023/10/17 14:42:29;;;;;;;1.20;0.80;;;11.50;99.90;;;;;;5066760;28;20500;-71
2023/10/17 14:44:56;;;;;;;0.60;0.60;;;11.50;99.90;;;;;;5058757;28;20230;-71
2023/10/17 14:47:24;;;;;;;1.10;0.70;;;11.50;99.90;;;;;;5070604;28;20732;-71
2023/10/17 14:49:51;;;;;;;1.00;1.00;;;11.50;99.90;;;;;;5055508;28;20206;-71
2023/10/17 14:52:19;;;;;;;1.67;0.98;;;11.50;99.90;;;;;;5058597;28;20238;-71
2023/10/17 14:54:45;;;;;;;1.20;0.50;;;11.40;99.90;;;;;;5057400;28;20237;-70
2023/10/17 14:57:13;;;;;;;1.50;0.60;;;11.40;99.90;;;;;;5053783;28;20482;-71
2023/10/17 14:59:42;;;;;;;3.63;0.60;;;11.40;99.90;;;;;;5071060;28;20304;-70
2023/10/17 15:02:10;;;;;;;0.75;0.75;;;11.30;99.90;;;;;;5052587;28;20609;-71
2023/10/17 15:04:37;;;;;;;0.80;0.68;;;11.30;99.90;;;;;;5050960;28;20241;-71
2023/10/17 15:07:04;;;;;;;0.50;0.50;;;11.30;99.90;;;;;;5067257;28;20248;-71
2023/10/17 15:09:31;;;;;;;0.50;0.50;;;11.20;99.90;;;;;;5055559;28;20218;-71
2023/10/17 15:11:58;;;;;;;0.57;0.57;;;11.20;99.90;;;;;;5071081;28;20229;-71
2023/10/17 15:14:26;;;;;;;1.38;0.80;;;11.10;99.90;;;;;;5042655;28;20207;-71
2023/10/17 15:16:54;;;;;;;0.82;0.82;;;11.10;99.90;;;;;;5050418;28;20582;-71
2023/10/17 15:19:21;;;;;;;0.82;0.82;;;11.10;99.90;;;;;;5062125;28;20209;-71
2023/10/17 15:21:48;;;;;;;0.85;0.85;;;11.00;99.90;;;;;;5063543;28;20630;-71
2023/10/17 15:24:15;;;;;;;0.40;0.40;;;11.00;99.90;;;;;;5058614;28;20226;-71
2023/10/17 15:26:42;;;;;;;1.35;0.70;;;10.90;99.90;;;;;;5056298;28;20214;-71
2023/10/17 15:29:08;;;;;;;0.73;0.73;;;10.80;99.90;;;;;;5070079;28;20209;-71
2023/10/17 15:31:35;;;;;;;0.50;0.50;;;10.70;99.90;;;;;;5062030;28;20598;-71
2023/10/17 15:34:04;;;;;;;0.90;0.90;;;10.60;99.90;;;;;;5069816;28;20228;-71
2023/10/17 15:36:30;;;;;;;1.20;1.20;;;10.60;99.90;;;;;;5054515;28;20270;-71
2023/10/17 15:38:57;;;;;;;1.10;1.10;;;10.60;99.90;;;;;;5062057;28;20209;-72
2023/10/17 15:41:24;;;;;;;3.60;1.13;;;10.60;99.90;;;;;;5058486;28;20248;-71
2023/10/17 15:43:51;;;;;;;3.22;1.00;;;10.50;99.90;;;;;;5066151;28;20243;-71
2023/10/17 15:46:18;;;;;;;1.70;1.65;;;10.50;99.90;;;;;;5069837;28;20679;-71
2023/10/17 15:48:45;;;;;;;1.15;1.15;;;10.40;99.90;;;;;;5064123;28;20212;-71
2023/10/17 15:51:18;;;;;;;1.15;1.00;;;10.30;99.90;;;;;;5049907;28;20257;-71
2023/10/17 15:53:45;;;;;;;1.25;1.15;;;10.20;99.90;;;;;;5056496;28;20208;-71
2023/10/17 15:56:13;;;;;;;1.52;1.40;;;10.10;99.90;;;;;;5059653;28;20209;-71
2023/10/17 15:58:40;;;;;;;1.30;1.30;;;10.00;99.90;;;;;;5056029;28;20472;-71
2023/10/17 16:01:06;;;;;;;2.45;2.13;;;9.90;99.90;;;;;;5060840;28;20240;-71
2023/10/17 16:03:33;;;;;;;1.65;1.42;;;9.80;99.90;;;;;;5052227;28;20217;-71
2023/10/17 16:06:00;;;;;;;1.40;1.40;;;9.70;99.90;;;;;;5062226;28;20209;-71
2023/10/17 16:08:29;;;;;;;1.38;1.38;;;9.60;99.90;;;;;;5054205;28;20612;-71
2023/10/17 16:10:56;;;;;;;4.53;3.08;;;9.60;99.90;;;;;;5061787;28;20233;-71
2023/10/17 16:13:24;;;;;;;4.78;3.42;;;9.50;99.90;;;;;;5073903;28;20205;-72
2023/10/17 16:15:58;;;;;;;2.45;2.35;;;9.40;99.90;;;;;;5074041;28;20244;-72
2023/10/17 16:18:25;;;;;;;4.47;4.05;;;9.40;99.90;;;;;;5057723;28;20248;-71
2023/10/17 16:20:52;;;;;;;6.68;4.68;;;9.30;99.90;;;;;;5073468;28;20233;-71
2023/10/17 16:23:18;;;;;;;7.60;5.15;;;9.20;99.90;;;;;;5073821;28;20322;-71
2023/10/17 16:25:48;;;;;;;7.53;4.57;;;9.10;99.90;;;;;;5073347;28;20216;-71
2023/10/17 16:28:16;;;;;;;9.65;4.20;;;9.00;99.90;;;;;;5073348;28;20244;-71
2023/10/17 16:30:43;;;;;;;2.88;2.60;;;8.90;99.90;;;;;;5073827;28;20233;-71
2023/10/17 16:33:12;;;;;;;6.53;3.67;;;8.90;99.90;;;;;;5073425;28;20696;-71
2023/10/17 16:35:42;;;;;;;4.45;3.30;;;8.80;99.90;;;;;;5073089;28;20641;-71
2023/10/17 16:38:10;;;;;;;8.05;4.65;;;8.70;99.90;;;;;;5073385;28;20209;-71
2023/10/17 16:40:40;;;;;;;5.43;4.85;;;8.60;99.90;;;;;;5073136;28;20261;-71
2023/10/17 16:43:08;;;;;;;4.53;4.13;;;8.60;99.90;;;;;;5073119;28;20213;-71
2023/10/17 16:45:36;;;;;;;6.38;4.75;;;8.50;99.90;;;;;;5072923;28;20252;-71
2023/10/17 16:48:04;;;;;;;4.45;4.05;;;8.50;99.90;;;;;;5064022;28;20209;-71
2023/10/17 16:50:31;;;;;;;5.53;4.85;;;8.40;99.90;;;;;;5065589;28;20687;-71
2023/10/17 16:52:59;;;;;;;5.55;5.05;;;8.30;99.90;;;;;;5073249;28;20217;-71
2023/10/17 16:55:26;;;;;;;5.80;5.20;;;8.30;99.90;;;;;;5072919;28;20299;-71
2023/10/17 16:57:53;;;;;;;7.70;6.25;;;8.20;99.90;;;;;;5072988;28;20209;-71
2023/10/17 17:00:27;;;;;;;8.52;6.70;;;8.10;99.90;;;;;;5072779;28;20217;-71
2023/10/17 17:02:56;;;;;;;8.05;7.03;;;8.00;99.90;;;;;;5072735;28;20211;-71
2023/10/17 17:05:23;;;;;;;7.10;6.40;;;8.00;99.90;;;;;;5072586;28;20233;-71
2023/10/17 17:07:50;;;;;;;9.13;6.47;;;7.90;99.90;;;;;;5072861;28;20288;-71
2023/10/17 17:10:19;;;;;;;13.98;7.43;;;7.80;99.90;;;;;;5072562;28;20626;-71
2023/10/17 17:12:47;;;;;;;11.10;7.20;;;7.80;99.90;;;;;;5072659;28;20299;-71
2023/10/17 17:15:15;;;;;;;13.30;8.05;;;7.80;99.90;;;;;;5071978;28;20278;-71
2023/10/17 17:17:43;;;;;;;18.30;10.80;;;7.70;99.90;;;;;;5072614;28;20213;-71
2023/10/17 17:20:13;;;;;;;25.70;12.65;;;7.70;99.90;;;;;;5072464;28;20209;-71
2023/10/17 17:22:40;;;;;;;23.15;12.38;;;7.60;99.90;;;;;;5072787;28;20686;-71
2023/10/17 17:25:08;;;;;;;22.75;11.05;;;7.60;99.90;;;;;;5055886;28;20595;-71
2023/10/17 17:27:36;;;;;;;15.73;9.57;;;7.50;99.90;;;;;;5072791;28;20209;-71
2023/10/17 17:30:07;;;;;;;15.35;9.00;;;7.50;99.90;;;;;;5063463;28;20213;-71
2023/10/17 17:32:34;;;;;;;7.32;6.50;;;7.40;99.90;;;;;;5061201;28;20229;-71
2023/10/17 17:35:02;;;;;;;7.60;6.30;;;7.40;99.90;;;;;;5053004;28;20217;-71
2023/10/17 17:37:29;;;;;;;8.02;5.32;;;7.40;99.90;;;;;;5079618;28;20493;-71
2023/10/17 17:39:56;;;;;;;6.88;6.28;;;7.40;99.90;;;;;;5080888;28;20354;-71
2023/10/17 17:42:23;;;;;;;6.50;5.90;;;7.30;99.90;;;;;;5079744;28;20248;-71
2023/10/17 17:44:50;;;;;;;7.18;6.57;;;7.30;99.90;;;;;;5076275;28;20715;-71
2023/10/17 17:47:17;;;;;;;13.57;7.75;;;7.30;99.90;;;;;;5073400;28;20212;-71
2023/10/17 17:49:45;;;;;;;11.68;8.15;;;7.20;99.90;;;;;;5072702;28;20209;-71
2023/10/17 17:52:13;;;;;;;9.05;8.25;;;7.20;99.90;;;;;;5072764;28;20248;-71
2023/10/17 17:54:40;;;;;;;8.95;7.88;;;7.10;99.90;;;;;;5072254;28;20205;-71
2023/10/17 17:57:09;;;;;;;7.40;6.70;;;7.10;99.90;;;;;;5063919;28;20216;-71
2023/10/17 17:59:39;;;;;;;8.35;7.05;;;7.00;99.90;;;;;;5072303;28;20576;-71
2023/10/17 18:02:06;;;;;;;8.32;7.47;;;7.00;99.90;;;;;;5071915;28;20233;-71
2023/10/17 18:04:33;;;;;;;12.50;8.63;;;6.90;99.90;;;;;;5071795;28;20244;-71
2023/10/17 18:07:00;;;;;;;8.48;7.60;;;6.90;99.90;;;;;;5071503;28;20205;-71
2023/10/17 18:09:29;;;;;;;14.05;9.07;;;6.90;99.90;;;;;;5071772;28;20586;-71
2023/10/17 18:11:58;;;;;;;14.73;9.93;;;6.80;99.90;;;;;;5071873;28;20229;-71
2023/10/17 18:14:25;;;;;;;12.60;9.60;;;6.80;99.90;;;;;;5071687;28;20211;-71
2023/10/17 18:16:51;;;;;;;12.20;9.85;;;6.80;99.90;;;;;;5064416;28;20206;-71
2023/10/17 18:19:18;;;;;;;14.65;9.95;;;6.70;99.90;;;;;;5070972;28;20209;-71
2023/10/17 18:21:45;;;;;;;12.13;9.60;;;6.70;99.90;;;;;;5071917;28;20244;-71
2023/10/17 18:24:12;;;;;;;12.98;9.38;;;6.70;99.90;;;;;;5071826;28;20229;-71
2023/10/17 18:26:41;;;;;;;13.07;9.07;;;6.70;99.90;;;;;;5065026;28;20205;-71
2023/10/17 18:29:10;;;;;;;12.50;10.10;;;6.60;99.90;;;;;;5061025;28;20214;-71
2023/10/17 18:31:39;;;;;;;13.10;10.25;;;6.60;99.90;;;;;;5071291;28;20232;-71
2023/10/17 18:34:06;;;;;;;12.80;10.57;;;6.60;99.90;;;;;;5063314;28;20213;-71